Time;durP1;ratioP1;P1;durP2;ratioP2;P2;SDS_P1;SDS_P2;PMS_P1;PMS_P2;Temp;Humidity;BMP_temperature;BMP_pressure;BME280_temperature;BME280_humidity;BME280_pressure;Samples;Min_cycle;Max_cycle;Signal;HPM_P1;HPM_P2
2021/11/10 00:00:47;;;;;;;13.27;4.53;;;;;;;8.67;47.59;102405.22;4985462;28;20040;-68
2021/11/10 00:03:12;;;;;;;13.35;4.75;;;;;;;8.49;48.00;102416.59;4986985;28;20047;-68
2021/11/10 00:05:39;;;;;;;19.92;4.75;;;;;;;8.59;48.01;102416.56;4970911;28;20043;-69
2021/11/10 00:08:05;;;;;;;15.10;4.30;;;;;;;8.49;48.24;102413.16;4969288;28;20049;-68
2021/11/10 00:10:31;;;;;;;13.15;4.20;;;;;;;8.61;47.90;102418.28;4968088;28;20042;-68
2021/11/10 00:13:03;;;;;;;12.43;3.85;;;;;;;8.60;47.83;102410.47;4984181;28;20105;-68
2021/11/10 00:15:29;;;;;;;14.38;3.33;;;;;;;8.53;47.75;102412.25;4970156;28;20130;-68
2021/11/10 00:17:54;;;;;;;12.05;3.60;;;;;;;8.49;47.91;102414.00;4973237;28;20496;-67
2021/11/10 00:20:20;;;;;;;13.43;3.40;;;;;;;8.67;47.48;102413.03;4966925;28;20899;-70
2021/11/10 00:22:46;;;;;;;13.90;3.50;;;;;;;8.03;48.63;102419.50;4971155;28;20093;-68
2021/11/10 00:25:11;;;;;;;17.60;4.05;;;;;;;8.60;47.19;102415.69;4968669;28;20044;-69
2021/11/10 00:27:37;;;;;;;15.07;3.25;;;;;;;8.47;47.22;102418.38;4971296;28;20108;-68
2021/11/10 00:30:04;;;;;;;10.98;4.13;;;;;;;8.55;47.16;102411.34;4975664;28;20041;-70
2021/11/10 00:32:29;;;;;;;18.33;4.07;;;;;;;8.39;47.48;102422.78;4975596;28;20197;-69
2021/11/10 00:34:55;;;;;;;15.60;4.63;;;;;;;8.17;47.72;102421.16;4984543;28;20488;-68
2021/11/10 00:37:20;;;;;;;17.85;3.85;;;;;;;7.87;48.38;102413.50;4966928;28;20050;-68
2021/11/10 00:39:47;;;;;;;16.75;3.15;;;;;;;8.10;47.39;102415.97;4991045;28;20038;-68
2021/11/10 00:42:13;;;;;;;18.55;4.35;;;;;;;8.08;47.12;102417.72;4971907;28;20503;-68
2021/11/10 00:44:38;;;;;;;8.73;3.22;;;;;;;8.13;47.12;102422.91;4961701;28;20133;-68
2021/11/10 00:47:04;;;;;;;9.15;3.22;;;;;;;8.11;47.33;102415.13;4969202;28;20046;-67
2021/11/10 00:49:30;;;;;;;12.88;3.38;;;;;;;8.40;46.69;102416.66;4955350;28;20120;-69
2021/11/10 00:51:55;;;;;;;14.38;4.15;;;;;;;8.26;46.91;102414.16;4982582;28;20504;-69
2021/11/10 00:54:21;;;;;;;13.63;3.78;;;;;;;8.32;46.39;102411.53;4961815;28;20074;-68
2021/11/10 00:56:46;;;;;;;15.93;3.47;;;;;;;8.29;46.41;102408.06;4960397;28;20888;-69
2021/11/10 00:59:12;;;;;;;12.35;4.38;;;;;;;8.31;46.53;102414.13;4971856;28;20030;-69
2021/11/10 01:01:37;;;;;;;12.45;3.72;;;;;;;8.04;47.14;102410.78;4969136;28;20046;-69
2021/11/10 01:04:03;;;;;;;15.73;4.45;;;;;;;7.82;47.65;102409.16;4958270;28;20424;-69
2021/11/10 01:06:32;;;;;;;15.18;4.85;;;;;;;8.09;47.02;102406.44;4971994;28;20515;-68
2021/11/10 01:08:57;;;;;;;11.23;2.67;;;;;;;7.78;47.60;102402.22;4953858;28;20099;-68
2021/11/10 01:11:23;;;;;;;9.60;4.43;;;;;;;7.82;48.00;102398.75;4959297;28;20472;-68
2021/11/10 01:13:48;;;;;;;11.88;4.85;;;;;;;8.18;47.23;102402.91;4972373;28;20116;-68
2021/11/10 01:16:14;;;;;;;13.60;3.88;;;;;;;7.69;48.37;102409.22;4981855;28;20030;-68
2021/11/10 01:18:42;;;;;;;14.07;3.60;;;;;;;7.55;49.28;102405.78;4987723;28;20627;-69
2021/11/10 01:21:10;;;;;;;11.88;3.53;;;;;;;7.69;49.11;102401.41;4990337;28;20040;-68
2021/11/10 01:23:35;;;;;;;11.70;4.00;;;;;;;7.69;49.68;102398.81;4989619;28;20042;-69
2021/11/10 01:26:01;;;;;;;9.35;4.50;;;;;;;7.89;49.89;102403.03;4975016;28;20045;-69
2021/11/10 01:28:26;;;;;;;15.70;4.43;;;;;;;7.91;49.82;102398.69;4968909;28;20436;-69
2021/11/10 01:30:52;;;;;;;10.57;4.78;;;;;;;7.74;50.83;102406.59;4972571;28;20109;-68
2021/11/10 01:33:20;;;;;;;10.77;4.05;;;;;;;7.18;52.76;102404.97;4964485;28;20042;-70
2021/11/10 01:35:46;;;;;;;10.23;4.80;;;;;;;6.80;54.21;102409.31;4966478;28;20408;-69
2021/11/10 01:38:17;;;;;;;10.15;4.25;;;;;;;7.15;53.41;102404.97;4987886;28;20046;-68
2021/11/10 01:40:43;;;;;;;18.23;4.35;;;;;;;7.32;53.01;102403.22;4974943;28;20049;-69
2021/11/10 01:43:16;;;;;;;11.38;4.55;;;;;;;7.49;53.24;102403.19;4993767;28;20102;-69
2021/11/10 01:45:46;;;;;;;14.00;4.20;;;;;;;7.64;52.53;102410.94;4983497;28;20794;-68
2021/11/10 01:48:13;;;;;;;13.77;5.00;;;;;;;7.49;52.86;102405.78;4981181;28;20046;-68
2021/11/10 01:50:39;;;;;;;12.70;4.88;;;;;;;7.63;52.43;102398.81;4994683;28;20046;-70
2021/11/10 01:53:09;;;;;;;11.98;5.55;;;;;;;7.68;52.01;102404.88;4984657;28;20050;-68
2021/11/10 01:55:36;;;;;;;14.30;4.78;;;;;;;7.50;52.66;102391.88;4975983;28;20507;-68
2021/11/10 01:58:02;;;;;;;11.48;4.30;;;;;;;7.45;52.75;102398.84;4994299;28;20046;-69
2021/11/10 02:00:33;;;;;;;6.78;3.78;;;;;;;7.27;53.52;102400.63;4986986;28;20046;-67
2021/11/10 02:03:07;;;;;;;23.08;5.32;;;;;;;6.98;54.38;102392.00;4978865;28;20046;-69
2021/11/10 02:05:55;;;;;;;13.40;4.40;;;;;;;7.47;53.38;102382.38;4975407;28;20038;-69
2021/11/10 02:08:33;;;;;;;14.93;5.07;;;;;;;7.43;53.17;102385.84;4974754;28;20034;-69
2021/11/10 02:11:02;;;;;;;16.88;4.65;;;;;;;7.42;53.08;102378.03;4978520;28;20026;-70
2021/11/10 02:13:29;;;;;;;19.33;5.78;;;;;;;6.84;55.16;102379.88;4971366;28;20152;-69
2021/11/10 02:15:56;;;;;;;13.30;4.90;;;;;;;7.33;53.88;102374.59;4993575;28;20034;-69
2021/11/10 02:18:22;;;;;;;15.15;5.00;;;;;;;7.37;53.87;102365.03;4974763;28;20039;-70
2021/11/10 02:20:53;;;;;;;17.88;5.65;;;;;;;7.21;54.02;102368.56;4965954;28;20542;-68
2021/11/10 02:23:19;;;;;;;10.48;4.57;;;;;;;7.51;53.38;102372.78;4993480;28;20066;-69
2021/11/10 02:25:45;;;;;;;16.77;6.07;;;;;;;7.17;54.05;102357.28;4979567;28;20052;-69
2021/11/10 02:28:11;;;;;;;10.10;4.78;;;;;;;6.98;54.68;102360.81;4975010;28;20049;-68
2021/11/10 02:30:36;;;;;;;20.10;5.68;;;;;;;7.28;54.21;102362.47;4993133;28;20039;-69
2021/11/10 02:33:04;;;;;;;15.93;6.05;;;;;;;7.39;53.71;102373.69;4978061;28;20038;-69
2021/11/10 02:35:32;;;;;;;17.20;7.03;;;;;;;7.58;53.63;102369.34;4978551;28;20030;-68
2021/11/10 02:38:05;;;;;;;25.02;6.13;;;;;;;7.39;53.85;102367.66;4976725;28;20737;-68
2021/11/10 02:40:31;;;;;;;23.10;6.53;;;;;;;7.30;54.43;102363.31;4993537;28;20042;-69
2021/11/10 02:42:57;;;;;;;17.83;6.75;;;;;;;7.19;54.62;102355.53;4974145;28;20035;-70
2021/11/10 02:45:23;;;;;;;14.00;5.63;;;;;;;7.37;54.23;102345.97;4959433;28;20030;-68
2021/11/10 02:47:49;;;;;;;14.15;5.65;;;;;;;7.45;54.10;102342.47;4977068;28;20179;-71
2021/11/10 02:50:15;;;;;;;13.95;6.75;;;;;;;7.22;54.56;102345.16;4976293;28;20038;-70
2021/11/10 02:52:41;;;;;;;14.20;5.35;;;;;;;7.43;53.81;102332.94;4979376;28;20077;-68
2021/11/10 02:55:07;;;;;;;15.65;4.95;;;;;;;7.59;53.53;102332.03;4974423;28;20051;-69
2021/11/10 02:57:33;;;;;;;17.50;6.53;;;;;;;7.36;53.65;102333.84;4987379;28;20508;-68
2021/11/10 02:59:59;;;;;;;20.80;6.25;;;;;;;6.87;55.39;102338.28;4975949;28;20566;-67
2021/11/10 03:02:30;;;;;;;19.23;6.55;;;;;;;7.36;53.94;102331.25;4991875;28;20046;-68
2021/11/10 03:04:59;;;;;;;24.20;6.93;;;;;;;7.48;53.61;102331.19;4978628;28;20030;-69
2021/11/10 03:07:26;;;;;;;14.52;5.80;;;;;;;7.49;53.58;102330.34;4988524;28;20058;-73
2021/11/10 03:09:55;;;;;;;15.25;6.68;;;;;;;7.18;53.77;102321.75;4999161;28;20145;-68
2021/11/10 03:12:25;;;;;;;16.92;6.78;;;;;;;7.42;53.50;102320.78;4973508;28;20122;-70
2021/11/10 03:14:51;;;;;;;17.92;5.85;;;;;;;7.61;53.56;102316.44;4978696;28;20460;-69
2021/11/10 03:17:19;;;;;;;16.75;6.93;;;;;;;7.56;53.33;102306.06;4990463;28;20052;-68
2021/11/10 03:19:46;;;;;;;16.13;6.53;;;;;;;7.64;53.15;102304.25;4961095;28;20546;-69
2021/11/10 03:22:14;;;;;;;15.45;6.43;;;;;;;7.68;52.59;102289.50;4957516;28;20046;-69
2021/11/10 03:24:44;;;;;;;17.15;6.35;;;;;;;6.75;55.57;102290.63;4977942;28;20690;-69
2021/11/10 03:27:12;;;;;;;22.20;6.80;;;;;;;7.46;53.78;102280.91;4978617;28;20542;-69
2021/11/10 03:29:39;;;;;;;20.30;6.93;;;;;;;7.80;52.42;102280.75;4990004;28;20120;-69
2021/11/10 03:32:08;;;;;;;9.68;4.93;;;;;;;7.78;52.38;102292.91;4974809;28;20053;-70
2021/11/10 03:34:34;;;;;;;18.92;5.97;;;;;;;7.74;52.50;102292.94;4979260;28;20041;-69
2021/11/10 03:37:00;;;;;;;17.83;5.55;;;;;;;7.74;52.54;102295.53;4990639;28;20512;-70
2021/11/10 03:39:27;;;;;;;15.50;5.72;;;;;;;7.42;53.27;102289.59;4975285;28;20038;-69
2021/11/10 03:41:54;;;;;;;15.85;5.63;;;;;;;7.65;52.60;102293.00;4972861;28;20038;-69
2021/11/10 03:44:20;;;;;;;17.77;5.53;;;;;;;7.73;52.77;102296.44;4959345;28;20035;-69
2021/11/10 03:46:45;;;;;;;16.88;5.40;;;;;;;7.75;52.75;102291.19;4972641;28;20026;-69
2021/11/10 03:49:14;;;;;;;13.70;5.95;;;;;;;7.93;51.79;102288.47;4976685;28;20478;-71
2021/11/10 03:51:42;;;;;;;17.85;6.07;;;;;;;7.62;52.31;102298.19;4969975;28;20035;-68
2021/11/10 03:54:08;;;;;;;16.70;5.15;;;;;;;8.09;51.84;102299.69;4990158;28;20117;-69
2021/11/10 03:56:37;;;;;;;17.10;5.97;;;;;;;8.03;51.58;102299.72;4985907;28;20035;-71
2021/11/10 03:59:03;;;;;;;14.68;5.22;;;;;;;8.07;51.54;102301.44;4982198;28;20034;-69
2021/11/10 04:01:30;;;;;;;20.23;5.07;;;;;;;8.20;50.90;102303.94;4975540;28;20060;-68
2021/11/10 04:03:57;;;;;;;14.55;5.65;;;;;;;7.95;51.85;102306.69;4976746;28;20030;-69
2021/11/10 04:06:23;;;;;;;19.23;6.85;;;;;;;7.87;52.27;102314.56;4990794;28;20543;-68
2021/11/10 04:08:51;;;;;;;14.60;6.05;;;;;;;7.66;52.71;102315.53;4993862;28;20046;-71
2021/11/10 04:11:20;;;;;;;17.33;5.38;;;;;;;7.97;51.73;102312.75;4974061;28;20050;-70
2021/11/10 04:13:47;;;;;;;11.93;4.85;;;;;;;8.09;51.55;102304.00;4962893;28;20814;-69
2021/11/10 04:16:13;;;;;;;12.82;4.57;;;;;;;8.21;51.44;102298.72;4999381;28;20021;-68
2021/11/10 04:18:39;;;;;;;12.90;4.93;;;;;;;7.94;51.29;102289.34;4964968;28;20045;-70
2021/11/10 04:21:13;;;;;;;11.23;5.50;;;;;;;8.26;51.22;102293.47;4977058;28;20127;-69
2021/11/10 04:23:39;;;;;;;12.75;5.40;;;;;;;8.05;51.39;102300.56;4979110;28;20034;-69
2021/11/10 04:26:08;;;;;;;6.63;4.28;;;;;;;8.24;50.97;102306.50;4982598;28;20069;-69
2021/11/10 04:28:35;;;;;;;16.33;5.97;;;;;;;7.88;51.47;102305.00;4993659;28;20479;-69
2021/11/10 04:31:01;;;;;;;25.30;6.72;;;;;;;8.01;51.01;102296.25;4980520;28;20049;-69
2021/11/10 04:33:29;;;;;;;14.10;4.90;;;;;;;8.18;50.75;102298.72;4981815;28;20058;-69
2021/11/10 04:35:55;;;;;;;11.85;5.07;;;;;;;7.83;51.60;102301.56;4997804;28;20041;-70
2021/11/10 04:38:21;;;;;;;20.65;5.13;;;;;;;7.87;51.38;102319.78;4978246;28;20037;-71
2021/11/10 04:40:47;;;;;;;20.10;5.10;;;;;;;7.33;52.77;102319.97;4995135;28;20060;-69
2021/11/10 04:43:15;;;;;;;12.90;5.80;;;;;;;7.73;51.86;102317.25;4984121;28;20507;-69
2021/11/10 04:45:50;;;;;;;;;;;;;;;7.88;51.17;102318.03;4987177;28;20030;-69
2021/11/10 04:48:16;;;;;;;19.42;5.03;;;;;;;7.96;51.37;102311.06;4998892;28;19944;-69
2021/11/10 04:50:44;;;;;;;11.57;5.35;;;;;;;8.01;51.03;102303.19;4980065;28;20041;-69
2021/11/10 04:53:12;;;;;;;10.25;5.20;;;;;;;8.12;50.53;102304.84;4995972;28;20049;-68
2021/11/10 04:55:39;;;;;;;19.73;5.00;;;;;;;7.91;50.80;102318.88;4968304;28;20795;-68
2021/11/10 04:58:05;;;;;;;9.23;4.30;;;;;;;8.04;50.45;102308.38;4978352;28;20045;-68
2021/11/10 05:00:32;;;;;;;14.23;5.05;;;;;;;8.11;50.47;102313.56;4985821;28;20065;-68
2021/11/10 05:02:58;;;;;;;11.75;5.40;;;;;;;8.06;50.40;102310.09;4974944;28;20042;-69
2021/11/10 05:05:23;;;;;;;16.85;4.53;;;;;;;7.86;50.52;102307.63;4978924;28;20118;-69
2021/11/10 05:07:50;;;;;;;12.20;4.75;;;;;;;7.56;51.58;102305.16;4959124;28;20070;-69
2021/11/10 05:10:17;;;;;;;14.50;6.63;;;;;;;7.66;50.93;102297.31;4970461;28;20039;-68
2021/11/10 05:12:45;;;;;;;11.55;5.53;;;;;;;7.97;50.78;102299.75;4975177;28;20871;-69
2021/11/10 05:15:12;;;;;;;13.02;5.35;;;;;;;7.88;51.17;102305.00;4973154;28;20163;-68
2021/11/10 05:17:38;;;;;;;13.85;5.28;;;;;;;8.13;50.44;102288.34;4971131;28;20846;-69
2021/11/10 05:20:05;;;;;;;10.60;5.65;;;;;;;7.32;52.67;102293.97;4976216;28;20416;-68
2021/11/10 05:22:31;;;;;;;14.13;5.97;;;;;;;7.58;52.41;102301.69;4979045;28;20113;-68
2021/11/10 05:24:56;;;;;;;18.48;5.78;;;;;;;7.94;51.59;102303.25;4995341;28;20050;-69
2021/11/10 05:27:22;;;;;;;13.65;5.90;;;;;;;7.95;51.37;102298.88;4984151;28;20471;-69
2021/11/10 05:29:47;;;;;;;15.57;6.45;;;;;;;8.05;51.44;102295.38;4974871;28;20030;-69
2021/11/10 05:32:13;;;;;;;11.57;6.00;;;;;;;7.91;51.43;102289.34;4977122;28;20055;-69
2021/11/10 05:34:38;;;;;;;14.63;5.38;;;;;;;8.02;51.16;102287.56;4984396;28;20030;-69
2021/11/10 05:37:04;;;;;;;15.15;6.85;;;;;;;8.12;50.72;102286.63;4973789;28;20055;-68
2021/11/10 05:39:30;;;;;;;10.95;5.20;;;;;;;8.22;50.53;102289.16;4970268;28;20796;-69
2021/11/10 05:41:56;;;;;;;14.90;5.97;;;;;;;8.08;50.55;102282.31;4974686;28;20154;-68
2021/11/10 05:44:22;;;;;;;9.63;5.45;;;;;;;7.71;51.47;102287.75;4991821;28;20066;-70
2021/11/10 05:46:48;;;;;;;23.90;6.35;;;;;;;8.01;50.67;102280.63;4979858;28;20623;-70
2021/11/10 05:49:13;;;;;;;11.10;6.20;;;;;;;8.14;50.24;102284.03;4995234;28;20026;-69
2021/11/10 05:51:40;;;;;;;10.13;5.45;;;;;;;8.08;50.02;102282.31;4988878;28;20030;-69
2021/11/10 05:54:06;;;;;;;13.32;5.38;;;;;;;8.22;50.19;102282.19;4977698;28;20053;-68
2021/11/10 05:56:33;;;;;;;20.13;5.97;;;;;;;8.24;49.77;102287.41;4970131;28;20030;-69
2021/11/10 05:59:00;;;;;;;11.63;5.10;;;;;;;7.89;50.57;102291.09;4972660;28;20096;-70
2021/11/10 06:01:26;;;;;;;12.13;5.68;;;;;;;8.08;49.91;102290.13;4975355;28;20031;-69
2021/11/10 06:03:54;;;;;;;11.80;4.95;;;;;;;8.09;50.02;102278.84;4976229;28;20034;-69
2021/11/10 06:06:20;;;;;;;20.30;6.88;;;;;;;8.13;49.58;102284.88;4973757;28;20046;-70
2021/11/10 06:08:45;;;;;;;14.45;5.53;;;;;;;7.69;50.62;102283.41;4969699;28;20137;-68
2021/11/10 06:11:12;;;;;;;13.18;6.10;;;;;;;7.73;50.86;102296.44;4975097;28;20106;-69
2021/11/10 06:13:39;;;;;;;19.92;6.70;;;;;;;8.02;50.18;102302.31;4973523;28;21696;-70
2021/11/10 06:16:06;;;;;;;13.38;6.20;;;;;;;7.91;50.17;102308.47;4981409;28;20037;-68
2021/11/10 06:18:31;;;;;;;13.48;5.75;;;;;;;7.78;50.64;102303.31;4978146;28;20078;-70
2021/11/10 06:20:59;;;;;;;13.13;6.13;;;;;;;7.65;51.07;102302.53;4995230;28;20152;-70
2021/11/10 06:23:24;;;;;;;15.40;6.47;;;;;;;7.80;50.32;102297.25;4975788;28;20851;-69
2021/11/10 06:25:50;;;;;;;13.07;6.05;;;;;;;7.96;50.03;102298.03;4968086;28;20041;-70
2021/11/10 06:28:15;;;;;;;15.05;6.20;;;;;;;7.57;50.79;102305.16;4976512;28;20043;-70
2021/11/10 06:30:41;;;;;;;16.55;7.25;;;;;;;7.40;50.88;102306.94;4976032;28;20062;-69
2021/11/10 06:33:07;;;;;;;10.93;6.15;;;;;;;7.40;51.05;102304.31;4992818;28;20504;-68
2021/11/10 06:35:32;;;;;;;13.02;5.45;;;;;;;7.76;49.88;102305.94;4974460;28;20498;-69
2021/11/10 06:37:58;;;;;;;15.88;7.43;;;;;;;7.96;49.55;102313.66;4972754;28;20053;-69
2021/11/10 06:40:23;;;;;;;11.35;6.22;;;;;;;8.03;49.35;102312.72;4974440;28;20047;-70
2021/11/10 06:42:49;;;;;;;15.68;6.32;;;;;;;7.82;49.39;102305.03;4982477;28;20061;-70
2021/11/10 06:45:14;;;;;;;10.63;5.63;;;;;;;7.68;49.66;102310.31;4976845;28;20109;-69
2021/11/10 06:47:41;;;;;;;16.67;5.90;;;;;;;7.54;49.94;102305.16;4977074;28;20451;-69
2021/11/10 06:50:07;;;;;;;16.83;6.43;;;;;;;7.70;49.73;102305.97;4975707;28;20050;-69
2021/11/10 06:52:32;;;;;;;16.00;6.35;;;;;;;7.72;49.63;102315.50;4990414;28;20500;-70
2021/11/10 06:54:58;;;;;;;12.25;6.40;;;;;;;7.77;49.55;102312.00;4976886;28;20033;-69
2021/11/10 06:57:27;;;;;;;15.45;7.05;;;;;;;7.62;49.38;102312.94;4963806;28;20060;-69
2021/11/10 06:59:53;;;;;;;17.42;6.65;;;;;;;7.85;48.81;102308.50;4976591;28;20073;-71
2021/11/10 07:02:19;;;;;;;10.98;6.13;;;;;;;7.41;50.14;102309.53;4975973;28;20122;-69
2021/11/10 07:04:44;;;;;;;17.55;7.55;;;;;;;7.69;49.15;102306.84;4975803;28;20473;-71
2021/11/10 07:07:10;;;;;;;15.60;7.40;;;;;;;7.70;49.50;102301.63;4971103;28;20046;-69
2021/11/10 07:09:36;;;;;;;13.15;6.80;;;;;;;7.86;48.78;102309.34;4983284;28;20047;-74
2021/11/10 07:12:02;;;;;;;13.55;6.65;;;;;;;7.88;48.90;102316.28;4979714;28;20142;-71
2021/11/10 07:14:27;;;;;;;18.85;7.03;;;;;;;7.85;48.72;102320.66;4980487;28;20990;-70
2021/11/10 07:16:54;;;;;;;16.48;7.38;;;;;;;7.61;49.38;102314.69;4989018;28;20096;-70
2021/11/10 07:19:20;;;;;;;11.50;6.15;;;;;;;7.43;49.76;102312.13;4980226;28;20050;-70
2021/11/10 07:21:47;;;;;;;9.68;5.55;;;;;;;7.62;49.90;102310.34;4979863;28;20065;-70
2021/11/10 07:24:13;;;;;;;15.45;6.65;;;;;;;7.56;49.79;102315.56;4991920;28;20038;-70
2021/11/10 07:26:38;;;;;;;11.02;5.85;;;;;;;7.51;50.03;102324.25;4975178;28;20067;-70
2021/11/10 07:29:04;;;;;;;15.15;5.82;;;;;;;7.79;49.17;102331.94;4979654;28;20137;-70
2021/11/10 07:31:30;;;;;;;12.50;6.57;;;;;;;7.47;49.84;102330.34;4979524;28;20402;-70
2021/11/10 07:33:59;;;;;;;14.30;7.53;;;;;;;7.42;50.18;102329.50;4991556;28;20061;-69
2021/11/10 07:36:29;;;;;;;12.60;6.95;;;;;;;7.39;50.26;102336.44;4961602;28;20399;-69
2021/11/10 07:38:56;;;;;;;13.10;7.13;;;;;;;7.21;51.04;102327.81;4963900;28;20053;-69
2021/11/10 07:41:25;;;;;;;18.27;6.22;;;;;;;6.96;51.51;102336.53;4974799;28;20103;-68
2021/11/10 07:43:53;;;;;;;17.20;7.95;;;;;;;6.24;53.40;102337.38;4980604;28;20046;-69
2021/11/10 07:46:20;;;;;;;11.80;6.57;;;;;;;7.11;51.86;102336.50;4987820;28;20031;-69
2021/11/10 07:48:49;;;;;;;13.95;6.38;;;;;;;6.98;52.14;102340.00;4973523;28;20455;-68
2021/11/10 07:51:17;;;;;;;13.80;6.18;;;;;;;7.20;52.16;102331.28;4979539;28;20042;-68
2021/11/10 07:53:43;;;;;;;15.45;6.68;;;;;;;7.17;52.11;102335.63;4960868;28;20042;-69
2021/11/10 07:56:10;;;;;;;9.82;6.07;;;;;;;7.36;51.74;102332.09;4973258;28;20050;-70
2021/11/10 07:58:38;;;;;;;13.48;6.50;;;;;;;7.39;51.55;102334.69;4972381;28;20053;-69
2021/11/10 08:01:04;;;;;;;14.32;5.78;;;;;;;7.76;50.70;102328.50;4960913;28;20517;-69
2021/11/10 08:03:30;;;;;;;12.73;6.60;;;;;;;7.66;50.80;102320.72;4977620;28;20050;-69
2021/11/10 08:05:57;;;;;;;13.40;6.28;;;;;;;7.67;50.48;102327.69;4966538;28;20027;-69
2021/11/10 08:08:23;;;;;;;11.73;6.32;;;;;;;7.31;52.10;102324.31;4964223;28;20089;-69
2021/11/10 08:10:53;;;;;;;11.10;6.20;;;;;;;7.54;51.60;102325.97;4979271;28;20042;-69
2021/11/10 08:13:18;;;;;;;13.85;6.20;;;;;;;7.77;50.67;102323.28;4984586;28;20061;-70
2021/11/10 08:15:44;;;;;;;17.08;6.60;;;;;;;7.84;50.53;102329.31;4999694;28;20033;-69
2021/11/10 08:18:10;;;;;;;12.25;5.85;;;;;;;7.54;51.38;102331.19;4995652;28;20061;-70
2021/11/10 08:20:35;;;;;;;9.77;5.50;;;;;;;8.16;50.29;102318.72;4979133;28;20139;-69
2021/11/10 08:23:02;;;;;;;15.65;6.97;;;;;;;8.36;49.63;102324.66;4979745;28;20041;-70
2021/11/10 08:25:28;;;;;;;10.85;5.82;;;;;;;8.52;49.18;102320.19;4995128;28;20035;-70
2021/11/10 08:27:55;;;;;;;11.38;5.45;;;;;;;7.77;50.90;102318.09;4976418;28;20060;-68
2021/11/10 08:30:21;;;;;;;12.82;5.25;;;;;;;8.05;50.85;102318.78;4973516;28;20050;-69
2021/11/10 08:32:49;;;;;;;10.30;5.85;;;;;;;8.21;50.17;102319.56;4974560;28;20243;-68
2021/11/10 08:35:15;;;;;;;11.80;5.35;;;;;;;7.90;51.27;102318.88;4981442;28;20047;-70
2021/11/10 08:37:41;;;;;;;10.18;5.22;;;;;;;7.88;51.26;102318.03;4978581;28;20049;-69
2021/11/10 08:40:09;;;;;;;13.68;7.30;;;;;;;8.62;49.51;102322.72;4992289;28;20171;-68
2021/11/10 08:42:36;;;;;;;14.88;6.10;;;;;;;8.64;49.49;102331.38;4983241;28;20038;-68
2021/11/10 08:45:08;;;;;;;9.73;6.35;;;;;;;7.82;51.93;102336.28;4973185;28;20030;-69
2021/11/10 08:47:34;;;;;;;10.93;5.38;;;;;;;8.16;50.85;102331.75;4986483;28;20116;-69
2021/11/10 08:50:00;;;;;;;16.67;6.30;;;;;;;8.56;50.43;102327.09;4988880;28;20035;-71
2021/11/10 08:52:28;;;;;;;14.02;6.22;;;;;;;7.79;51.76;102329.34;4986347;28;20585;-70
2021/11/10 08:54:55;;;;;;;10.38;5.72;;;;;;;8.28;50.64;102331.66;4985337;28;20049;-69
2021/11/10 08:57:21;;;;;;;15.98;6.75;;;;;;;8.50;50.52;102334.09;4987026;28;20047;-70
2021/11/10 08:59:46;;;;;;;14.20;6.97;;;;;;;8.06;50.91;102337.88;4958502;28;20026;-69
2021/11/10 09:02:12;;;;;;;10.18;6.13;;;;;;;8.02;51.91;102333.56;4971739;28;20643;-70
2021/11/10 09:04:37;;;;;;;13.60;5.85;;;;;;;7.66;52.99;102330.28;4969280;28;20388;-70
2021/11/10 09:07:03;;;;;;;13.70;6.50;;;;;;;8.51;50.61;102326.25;4970658;28;20188;-70
2021/11/10 09:09:29;;;;;;;13.05;6.25;;;;;;;9.16;49.32;102321.34;4976290;28;20046;-69
2021/11/10 09:11:55;;;;;;;11.27;6.47;;;;;;;9.10;49.42;102315.34;4970172;28;20108;-70
2021/11/10 09:14:21;;;;;;;12.77;5.30;;;;;;;9.64;48.79;102315.56;4965344;28;20039;-70
2021/11/10 09:16:47;;;;;;;11.35;6.57;;;;;;;9.44;48.80;102313.19;4970965;28;20038;-70
2021/11/10 09:19:13;;;;;;;15.70;8.48;;;;;;;8.76;50.44;102310.44;4961221;28;20130;-70
2021/11/10 09:21:39;;;;;;;12.10;5.95;;;;;;;9.32;49.19;102313.31;4979073;28;20045;-71
2021/11/10 09:24:06;;;;;;;12.45;6.57;;;;;;;9.23;49.11;102319.53;4961770;28;20034;-68
2021/11/10 09:26:32;;;;;;;12.63;6.82;;;;;;;9.38;49.06;102321.94;4980221;28;20505;-70
2021/11/10 09:28:58;;;;;;;12.77;6.85;;;;;;;9.09;50.04;102321.41;4971174;28;20065;-70
2021/11/10 09:31:24;;;;;;;12.48;6.80;;;;;;;9.40;49.20;102320.19;4956488;28;20614;-70
2021/11/10 09:33:54;;;;;;;15.18;6.75;;;;;;;9.61;48.33;102318.22;4993779;28;20034;-69
2021/11/10 09:36:20;;;;;;;12.00;6.15;;;;;;;9.78;48.11;102331.88;4994247;28;20903;-69
2021/11/10 09:38:46;;;;;;;14.57;9.23;;;;;;;9.94;47.94;102336.94;4974266;28;20125;-70
2021/11/10 09:41:12;;;;;;;15.02;7.57;;;;;;;9.58;48.83;102353.03;4992839;28;20125;-69
2021/11/10 09:43:39;;;;;;;15.23;7.30;;;;;;;9.58;49.16;102352.16;4993280;28;20129;-70
2021/11/10 09:46:06;;;;;;;15.40;7.35;;;;;;;9.40;49.86;102358.47;4992445;28;20077;-69
2021/11/10 09:48:33;;;;;;;16.13;7.55;;;;;;;9.27;49.45;102362.09;4992981;28;20049;-68
2021/11/10 09:50:59;;;;;;;14.45;8.13;;;;;;;9.10;50.29;102352.72;4992367;28;20025;-70
2021/11/10 09:53:25;;;;;;;14.57;6.75;;;;;;;8.82;51.23;102352.09;4997438;28;20046;-68
2021/11/10 09:55:54;;;;;;;22.33;8.68;;;;;;;8.45;52.35;102361.91;4986984;28;20437;-70
2021/11/10 09:58:20;;;;;;;22.10;7.40;;;;;;;8.92;51.41;102352.91;4976988;28;20050;-69
2021/11/10 10:00:51;;;;;;;19.02;8.15;;;;;;;9.48;49.77;102358.41;4979661;28;20026;-69
2021/11/10 10:03:17;;;;;;;20.05;8.05;;;;;;;9.32;50.04;102355.97;4988529;28;20122;-70
2021/11/10 10:05:44;;;;;;;24.13;9.50;;;;;;;9.49;49.86;102355.75;4979013;28;20406;-69
2021/11/10 10:08:11;;;;;;;12.65;7.90;;;;;;;9.71;49.55;102358.97;4977743;28;20133;-70
2021/11/10 10:10:39;;;;;;;15.82;7.32;;;;;;;8.72;51.76;102353.06;4979510;28;20030;-69
2021/11/10 10:13:05;;;;;;;19.00;8.10;;;;;;;9.22;50.62;102359.53;4978100;28;20555;-71
2021/11/10 10:15:33;;;;;;;16.08;7.03;;;;;;;9.17;50.67;102366.56;4981265;28;20038;-72
2021/11/10 10:17:59;;;;;;;14.07;8.20;;;;;;;9.92;49.83;102364.81;4979455;28;20047;-70
2021/11/10 10:20:29;;;;;;;15.10;7.90;;;;;;;9.73;49.69;102366.78;4978265;28;20408;-69
2021/11/10 10:22:57;;;;;;;15.50;9.27;;;;;;;9.55;49.79;102357.44;4985010;28;20046;-68
2021/11/10 10:25:36;;;;;;;13.82;8.43;;;;;;;8.91;51.81;102354.63;4973358;28;20034;-69
2021/11/10 10:28:02;;;;;;;15.88;7.47;;;;;;;8.75;52.09;102358.25;4990014;28;20191;-69
2021/11/10 10:30:38;;;;;;;15.43;7.72;;;;;;;9.55;50.39;102341.78;4979919;28;20750;-70
2021/11/10 10:33:10;;;;;;;18.10;7.68;;;;;;;9.89;50.05;102347.44;4978298;28;20057;-69
2021/11/10 10:35:35;;;;;;;20.23;9.05;;;;;;;9.97;49.47;102345.59;4977592;28;20030;-70
2021/11/10 10:38:02;;;;;;;12.65;6.75;;;;;;;9.53;50.77;102340.94;4964578;28;20562;-68
2021/11/10 10:40:29;;;;;;;16.50;8.05;;;;;;;9.47;50.62;102346.22;4964355;28;20404;-70
2021/11/10 10:42:55;;;;;;;16.80;7.50;;;;;;;9.04;51.89;102339.72;4977596;28;20089;-69
2021/11/10 10:45:26;;;;;;;17.10;8.75;;;;;;;8.86;52.80;102332.94;4977441;28;20034;-68
2021/11/10 10:48:00;;;;;;;13.77;7.97;;;;;;;9.53;51.04;102340.94;4978575;28;20039;-70
2021/11/10 10:50:31;;;;;;;15.23;8.30;;;;;;;9.71;50.34;102332.84;4973845;28;20157;-70
2021/11/10 10:52:57;;;;;;;14.23;8.00;;;;;;;9.42;51.26;102335.84;4977782;28;20049;-69
2021/11/10 10:55:45;;;;;;;21.10;8.38;;;;;;;9.47;51.35;102327.94;4978036;28;20050;-70
2021/11/10 10:58:33;;;;;;;13.55;7.88;;;;;;;10.11;49.76;102337.56;5001991;28;20047;-70
2021/11/10 11:01:30;;;;;;;15.55;8.45;;;;;;;10.20;48.87;102334.81;5004834;28;20027;-70
2021/11/10 11:04:02;;;;;;;13.15;7.55;;;;;;;10.52;48.44;102338.66;4984298;28;20116;-69
2021/11/10 11:06:40;;;;;;;15.45;7.53;;;;;;;10.76;47.85;102331.28;4988751;28;20408;-69
2021/11/10 11:09:25;;;;;;;13.07;8.57;;;;;;;10.19;49.05;102325.25;4986349;28;20057;-69
2021/11/10 11:12:01;;;;;;;12.40;6.55;;;;;;;10.49;48.42;102323.03;4980735;28;20057;-70
2021/11/10 11:17:29;;;;;;;14.52;7.60;;;;;;;10.52;47.90;102333.44;4976814;28;20050;-68
2021/11/10 11:20:00;;;;;;;13.88;7.07;;;;;;;10.32;48.43;102330.28;4974327;28;20046;-69
2021/11/10 11:22:31;;;;;;;12.50;6.93;;;;;;;9.50;49.84;102331.41;4977306;28;20046;-68
2021/11/10 11:25:06;;;;;;;16.90;6.90;;;;;;;9.90;49.74;102335.25;4981271;28;20089;-68
2021/11/10 11:27:31;;;;;;;14.20;7.57;;;;;;;10.13;48.38;102329.72;4986186;28;20085;-69
2021/11/10 11:30:06;;;;;;;15.30;7.55;;;;;;;10.66;48.01;102329.72;4979997;28;20122;-69